Time;durP1;ratioP1;P1;durP2;ratioP2;P2;SDS_P1;SDS_P2;PMS_P1;PMS_P2;Temp;Humidity;BMP_temperature;BMP_pressure;BME280_temperature;BME280_humidity;BME280_pressure;Samples;Min_cycle;Max_cycle;Signal;HPM_P1;HPM_P2
2023/08/16 00:00:14;;;;;;;19.55;15.07;;;17.30;99.90;;;;;;5113546;28;20062;-67
2023/08/16 00:02:40;;;;;;;22.60;14.80;;;17.20;99.90;;;;;;5113531;28;20028;-67
2023/08/16 00:05:07;;;;;;;20.45;14.45;;;17.30;99.90;;;;;;5113480;28;20651;-67
2023/08/16 00:07:34;;;;;;;23.02;15.32;;;17.40;99.90;;;;;;5112830;28;20085;-67
2023/08/16 00:10:00;;;;;;;23.98;15.40;;;17.30;99.90;;;;;;5114031;28;20634;-67
2023/08/16 00:12:26;;;;;;;22.38;14.45;;;17.20;99.90;;;;;;5113629;28;20374;-66
2023/08/16 00:14:52;;;;;;;21.50;14.90;;;17.10;99.90;;;;;;5113446;28;20024;-67
2023/08/16 00:17:18;;;;;;;20.65;14.32;;;17.10;99.90;;;;;;5113355;28;20027;-67
2023/08/16 00:19:44;;;;;;;21.35;14.65;;;17.10;99.90;;;;;;5113488;28;20384;-66
2023/08/16 00:22:10;;;;;;;17.92;14.40;;;17.10;99.90;;;;;;5113355;28;20034;-67
2023/08/16 00:24:36;;;;;;;20.90;15.00;;;17.20;99.90;;;;;;5113263;28;20051;-66
2023/08/16 00:27:03;;;;;;;21.60;14.80;;;17.20;99.90;;;;;;5113224;28;20472;-67
2023/08/16 00:29:29;;;;;;;28.05;16.23;;;17.20;99.90;;;;;;5113115;28;20369;-67
2023/08/16 00:31:57;;;;;;;27.75;16.02;;;17.20;99.90;;;;;;5111894;28;20042;-67
2023/08/16 00:34:23;;;;;;;29.13;15.77;;;17.00;99.90;;;;;;5111973;28;20039;-67
2023/08/16 00:36:49;;;;;;;35.28;16.15;;;17.00;99.90;;;;;;5113016;28;20023;-67
2023/08/16 00:39:15;;;;;;;23.40;15.73;;;16.90;99.90;;;;;;5113064;28;20538;-67
2023/08/16 00:41:41;;;;;;;24.60;15.88;;;17.00;99.90;;;;;;5111576;28;20028;-67
2023/08/16 00:44:08;;;;;;;21.25;14.35;;;17.00;99.90;;;;;;5112988;28;20028;-67
2023/08/16 00:46:34;;;;;;;23.23;15.23;;;16.90;99.90;;;;;;5112924;28;20052;-67
2023/08/16 00:49:00;;;;;;;21.63;15.00;;;16.90;99.90;;;;;;5112997;28;20058;-67
2023/08/16 00:51:26;;;;;;;20.92;16.00;;;16.90;99.90;;;;;;5111488;28;20392;-67
2023/08/16 00:53:53;;;;;;;20.98;15.18;;;16.80;99.90;;;;;;5113308;28;20157;-67
2023/08/16 00:56:20;;;;;;;20.50;16.05;;;16.80;99.90;;;;;;5111605;28;20138;-66
2023/08/16 00:58:46;;;;;;;25.70;16.88;;;16.80;99.90;;;;;;5112585;28;20358;-66
2023/08/16 01:01:13;;;;;;;27.63;17.90;;;16.70;99.90;;;;;;5112668;28;20061;-67
2023/08/16 01:03:39;;;;;;;24.70;17.45;;;16.70;99.90;;;;;;5112844;28;20047;-67
2023/08/16 01:06:05;;;;;;;28.60;17.80;;;16.70;99.90;;;;;;5112556;28;20030;-67
2023/08/16 01:08:33;;;;;;;26.35;18.25;;;16.80;99.90;;;;;;5112937;28;20040;-67
2023/08/16 01:11:11;;;;;;;25.60;17.13;;;16.70;99.90;;;;;;5111081;28;20031;-67
2023/08/16 01:13:52;;;;;;;28.73;16.75;;;16.70;99.90;;;;;;5111156;28;20047;-67
2023/08/16 01:16:19;;;;;;;21.48;16.17;;;16.60;99.90;;;;;;5111403;28;20027;-67
2023/08/16 01:18:46;;;;;;;23.83;17.25;;;16.60;99.90;;;;;;5114263;28;20070;-67
2023/08/16 01:21:15;;;;;;;26.65;16.48;;;16.70;99.90;;;;;;5116937;28;20489;-67
2023/08/16 01:24:02;;;;;;;25.20;16.13;;;16.70;99.90;;;;;;5116819;28;20035;-67
2023/08/16 01:26:38;;;;;;;20.10;15.73;;;16.80;99.90;;;;;;5116692;28;20495;-67
2023/08/16 01:29:07;;;;;;;23.40;16.00;;;16.70;99.90;;;;;;5116756;28;20031;-67
2023/08/16 01:31:34;;;;;;;25.75;17.40;;;16.70;99.90;;;;;;5116580;28;20080;-67
2023/08/16 01:34:00;;;;;;;27.55;16.80;;;16.60;99.90;;;;;;5116595;28;20134;-67
2023/08/16 01:36:27;;;;;;;25.92;17.00;;;16.60;99.90;;;;;;5116597;28;20031;-67
2023/08/16 01:38:54;;;;;;;24.55;15.88;;;16.50;99.90;;;;;;5115131;28;20389;-67
2023/08/16 01:41:20;;;;;;;25.25;16.30;;;16.60;99.90;;;;;;5116095;28;20028;-67
2023/08/16 01:43:48;;;;;;;25.85;16.52;;;16.50;99.90;;;;;;5114933;28;20043;-67
2023/08/16 01:46:15;;;;;;;26.30;16.65;;;16.60;99.90;;;;;;5114779;28;20126;-67
2023/08/16 01:48:43;;;;;;;26.63;17.27;;;16.60;99.90;;;;;;5116118;28;20028;-67
2023/08/16 01:51:09;;;;;;;28.52;17.63;;;16.60;99.90;;;;;;5114763;28;20081;-67
2023/08/16 01:53:36;;;;;;;30.63;18.35;;;16.70;99.90;;;;;;5114888;28;20035;-67
2023/08/16 01:56:02;;;;;;;24.77;16.83;;;16.60;99.90;;;;;;5115977;27;20034;-67
2023/08/16 01:58:29;;;;;;;23.38;16.80;;;16.70;99.90;;;;;;5114819;28;20055;-67
2023/08/16 02:00:55;;;;;;;21.73;16.08;;;16.70;99.90;;;;;;5114300;28;20074;-67
2023/08/16 02:03:21;;;;;;;21.15;15.68;;;16.70;99.90;;;;;;5115692;28;20051;-67
2023/08/16 02:05:47;;;;;;;25.33;15.98;;;16.80;99.90;;;;;;5115944;28;20040;-67
2023/08/16 02:08:13;;;;;;;23.42;16.63;;;16.80;99.90;;;;;;5116041;28;20034;-67
2023/08/16 02:10:39;;;;;;;24.73;17.08;;;16.90;99.90;;;;;;5115755;28;20035;-67
2023/08/16 02:13:05;;;;;;;29.30;16.58;;;17.10;99.90;;;;;;5115694;28;20053;-67
2023/08/16 02:15:31;;;;;;;25.60;16.27;;;17.10;99.90;;;;;;5114390;28;20034;-67
2023/08/16 02:17:58;;;;;;;24.15;16.88;;;17.10;99.90;;;;;;5114444;28;20069;-67
2023/08/16 02:20:23;;;;;;;17.70;14.15;;;17.20;99.90;;;;;;5114394;28;20346;-67
2023/08/16 02:22:49;;;;;;;19.05;13.23;;;17.20;99.90;;;;;;5115587;28;20672;-67
2023/08/16 02:25:15;;;;;;;17.67;13.95;;;17.40;99.90;;;;;;5115493;28;20413;-67
2023/08/16 02:27:41;;;;;;;21.67;13.77;;;17.40;99.90;;;;;;5114410;28;20027;-67
2023/08/16 02:30:08;;;;;;;21.42;12.90;;;17.40;99.90;;;;;;5114093;28;20035;-67
2023/08/16 02:32:34;;;;;;;30.90;14.30;;;17.40;99.90;;;;;;5115561;28;20417;-67
2023/08/16 02:35:01;;;;;;;24.17;14.13;;;17.30;99.90;;;;;;5114135;28;20503;-67
2023/08/16 02:37:29;;;;;;;24.48;13.77;;;17.30;99.90;;;;;;5114086;28;20034;-67
2023/08/16 02:39:55;;;;;;;39.28;13.95;;;17.30;99.90;;;;;;5113952;28;20028;-67
2023/08/16 02:42:21;;;;;;;43.78;17.25;;;17.30;99.90;;;;;;5115299;28;20524;-67
2023/08/16 02:44:48;;;;;;;54.15;18.45;;;17.20;99.90;;;;;;5115075;28;20089;-67
2023/08/16 02:47:14;;;;;;;42.10;17.65;;;17.30;99.90;;;;;;5113860;28;20063;-67
2023/08/16 02:49:40;;;;;;;35.85;18.73;;;17.30;99.90;;;;;;5115561;28;20027;-67
2023/08/16 02:52:06;;;;;;;34.15;17.90;;;17.30;99.90;;;;;;5113585;28;20466;-67
2023/08/16 02:54:32;;;;;;;32.53;18.02;;;17.30;99.90;;;;;;5113648;28;20055;-67
2023/08/16 02:56:58;;;;;;;37.53;19.02;;;17.30;99.90;;;;;;5115140;28;20062;-67
2023/08/16 02:59:24;;;;;;;33.65;18.13;;;17.30;99.90;;;;;;5114897;28;20456;-66
2023/08/16 03:01:50;;;;;;;31.27;19.73;;;17.40;99.90;;;;;;5116531;28;20084;-67
2023/08/16 03:04:16;;;;;;;33.72;20.70;;;17.50;99.90;;;;;;5114802;28;20054;-67
2023/08/16 03:06:42;;;;;;;27.90;21.05;;;17.50;99.90;;;;;;5113292;28;20028;-67
2023/08/16 03:09:09;;;;;;;30.95;19.50;;;17.50;99.90;;;;;;5113358;28;20051;-67
2023/08/16 03:11:35;;;;;;;35.05;19.58;;;17.70;99.90;;;;;;5114633;28;20043;-67
2023/08/16 03:14:01;;;;;;;30.17;19.73;;;17.60;99.90;;;;;;5114393;28;20024;-67
2023/08/16 03:16:26;;;;;;;38.58;20.10;;;17.60;99.90;;;;;;5114472;28;20028;-67
2023/08/16 03:18:55;;;;;;;36.25;18.65;;;17.60;99.90;;;;;;5113380;28;20036;-67
2023/08/16 03:21:22;;;;;;;33.03;18.50;;;17.50;99.90;;;;;;5113155;28;20028;-67
2023/08/16 03:23:48;;;;;;;37.90;19.15;;;17.60;99.90;;;;;;5114577;28;20023;-67
2023/08/16 03:26:14;;;;;;;39.25;19.50;;;17.60;99.90;;;;;;5114514;28;20055;-67
2023/08/16 03:28:40;;;;;;;40.15;20.92;;;17.60;99.90;;;;;;5114459;28;20519;-67
2023/08/16 03:31:07;;;;;;;45.95;20.42;;;17.60;99.90;;;;;;5112809;28;20452;-67
2023/08/16 03:33:34;;;;;;;43.20;20.25;;;17.60;99.90;;;;;;5113028;28;20019;-67
2023/08/16 03:36:01;;;;;;;48.85;21.67;;;17.60;99.90;;;;;;5112754;28;20030;-67
2023/08/16 03:38:27;;;;;;;46.80;22.48;;;17.60;99.90;;;;;;5112866;28;20468;-67
2023/08/16 03:40:53;;;;;;;52.80;22.83;;;17.60;99.90;;;;;;5112741;28;20040;-67
2023/08/16 03:43:19;;;;;;;56.47;20.77;;;17.70;99.90;;;;;;5112641;28;20433;-67
2023/08/16 03:45:45;;;;;;;47.13;21.20;;;17.70;99.90;;;;;;5114026;28;20079;-67
2023/08/16 03:48:11;;;;;;;45.28;21.77;;;17.80;99.90;;;;;;5113894;28;20081;-67
2023/08/16 03:50:38;;;;;;;46.15;21.65;;;17.80;99.90;;;;;;5112241;28;20211;-67
2023/08/16 03:53:04;;;;;;;41.05;19.95;;;17.80;99.90;;;;;;5112476;28;20028;-67
2023/08/16 03:55:30;;;;;;;55.83;22.67;;;17.80;99.90;;;;;;5112591;28;20114;-67
2023/08/16 03:57:57;;;;;;;53.60;23.60;;;17.80;99.90;;;;;;5112593;28;20154;-67
2023/08/16 04:00:23;;;;;;;42.80;21.40;;;17.90;99.90;;;;;;5112376;28;20048;-67
2023/08/16 04:02:49;;;;;;;48.60;21.27;;;17.90;99.90;;;;;;5112319;28;20035;-67
2023/08/16 04:05:15;;;;;;;55.72;22.63;;;17.90;99.90;;;;;;5112180;28;20027;-67
2023/08/16 04:07:42;;;;;;;44.30;22.75;;;17.90;99.90;;;;;;5112302;28;20032;-67
2023/08/16 04:10:08;;;;;;;53.13;23.35;;;17.80;99.90;;;;;;5113425;28;20031;-67
2023/08/16 04:12:35;;;;;;;45.45;23.00;;;17.80;99.90;;;;;;5111912;28;20038;-67
2023/08/16 04:15:02;;;;;;;50.10;21.90;;;17.70;99.90;;;;;;5113476;28;20420;-67
2023/08/16 04:17:29;;;;;;;47.47;24.05;;;17.80;99.90;;;;;;5113242;28;20106;-67
2023/08/16 04:19:55;;;;;;;51.70;23.73;;;17.80;99.90;;;;;;5113479;28;20111;-67
2023/08/16 04:22:21;;;;;;;47.20;23.38;;;17.70;99.90;;;;;;5113435;28;20716;-67
2023/08/16 04:24:47;;;;;;;47.33;23.13;;;17.80;99.90;;;;;;5113266;28;20027;-67
2023/08/16 04:27:13;;;;;;;47.38;23.85;;;17.80;99.90;;;;;;5111700;28;20420;-67
2023/08/16 04:29:40;;;;;;;41.90;23.48;;;17.80;99.90;;;;;;5111695;28;20400;-67
2023/08/16 04:32:06;;;;;;;46.17;22.33;;;17.90;99.90;;;;;;5111460;28;20031;-67
2023/08/16 04:34:32;;;;;;;40.95;22.73;;;17.90;99.90;;;;;;5113121;28;20026;-67
2023/08/16 04:36:58;;;;;;;40.80;22.08;;;17.90;99.90;;;;;;5113172;28;20052;-67
2023/08/16 04:39:24;;;;;;;38.03;21.05;;;18.10;99.90;;;;;;5111898;28;20031;-67
2023/08/16 04:41:50;;;;;;;46.88;23.45;;;18.10;99.90;;;;;;5111613;28;20039;-67
2023/08/16 04:44:17;;;;;;;40.25;21.00;;;18.00;99.90;;;;;;5111565;28;20039;-67
2023/08/16 04:46:43;;;;;;;38.38;21.42;;;18.00;99.90;;;;;;5111431;28;20024;-67
2023/08/16 04:49:09;;;;;;;39.45;21.08;;;18.00;99.90;;;;;;5111475;28;20027;-67
2023/08/16 04:51:35;;;;;;;39.40;20.58;;;18.10;99.90;;;;;;5111292;28;20035;-67
2023/08/16 04:54:03;;;;;;;37.15;20.58;;;18.20;99.90;;;;;;5110789;28;20040;-67
2023/08/16 04:56:29;;;;;;;40.42;21.38;;;18.10;99.90;;;;;;5111411;28;20484;-67
2023/08/16 04:58:56;;;;;;;36.88;22.40;;;18.20;99.90;;;;;;5111390;28;20030;-67
2023/08/16 05:01:23;;;;;;;40.55;21.23;;;18.20;99.90;;;;;;5111172;28;20031;-67
2023/08/16 05:03:52;;;;;;;44.30;24.50;;;18.30;99.90;;;;;;5111407;28;20405;-67
2023/08/16 05:06:19;;;;;;;44.75;23.95;;;18.40;99.90;;;;;;5111170;28;20400;-67
2023/08/16 05:08:48;;;;;;;40.30;23.75;;;18.50;99.90;;;;;;5112736;28;20032;-67
2023/08/16 05:11:15;;;;;;;35.10;22.45;;;18.50;99.90;;;;;;5111088;28;20027;-67
2023/08/16 05:13:41;;;;;;;44.25;24.77;;;18.40;99.90;;;;;;5111131;28;20043;-67
2023/08/16 05:16:07;;;;;;;43.38;23.38;;;18.50;99.90;;;;;;5111108;28;20028;-67
2023/08/16 05:18:34;;;;;;;58.50;26.85;;;18.60;99.90;;;;;;5111211;28;20020;-67
2023/08/16 05:21:02;;;;;;;43.65;25.77;;;18.60;99.90;;;;;;5111354;28;20506;-67
2023/08/16 05:23:29;;;;;;;39.05;24.15;;;18.70;99.90;;;;;;5110367;28;20031;-67
2023/08/16 05:25:55;;;;;;;38.75;23.30;;;18.80;99.90;;;;;;5088598;28;20032;-67
2023/08/16 05:28:23;;;;;;;43.30;23.75;;;18.90;99.90;;;;;;5087824;28;20032;-67
2023/08/16 05:30:49;;;;;;;40.50;24.75;;;19.00;99.90;;;;;;5088757;28;20256;-67
2023/08/16 05:33:15;;;;;;;36.15;22.95;;;19.00;99.90;;;;;;5088128;28;20304;-67
2023/08/16 05:35:41;;;;;;;44.92;24.58;;;19.00;99.90;;;;;;5092983;28;20548;-67
2023/08/16 05:38:07;;;;;;;41.88;22.40;;;19.20;99.90;;;;;;5089153;28;20023;-67
2023/08/16 05:40:33;;;;;;;34.05;22.20;;;19.20;99.90;;;;;;5087634;28;20031;-67
2023/08/16 05:42:59;;;;;;;36.63;21.73;;;19.30;99.90;;;;;;5087646;28;20036;-67
2023/08/16 05:45:29;;;;;;;39.17;22.95;;;19.30;99.90;;;;;;5087706;28;20035;-67
2023/08/16 05:47:56;;;;;;;39.08;22.63;;;19.30;99.90;;;;;;5089234;28;20031;-67
2023/08/16 05:50:23;;;;;;;43.58;22.52;;;19.50;99.90;;;;;;5085697;28;20064;-67
2023/08/16 05:52:49;;;;;;;40.83;23.90;;;19.50;99.90;;;;;;5088760;28;20064;-67
2023/08/16 05:55:15;;;;;;;43.08;22.15;;;19.40;99.90;;;;;;5087799;28;20028;-67
2023/08/16 05:57:41;;;;;;;40.85;22.17;;;19.50;99.90;;;;;;5087565;28;20110;-67
2023/08/16 06:00:07;;;;;;;46.42;23.80;;;19.60;99.90;;;;;;5087788;28;20054;-68
2023/08/16 06:02:38;;;;;;;41.55;20.58;;;19.70;99.90;;;;;;5087951;28;20512;-68
2023/08/16 06:05:04;;;;;;;35.95;21.30;;;19.70;99.90;;;;;;5089293;28;20303;-67
2023/08/16 06:07:30;;;;;;;47.42;23.35;;;19.70;99.90;;;;;;5091337;28;20028;-68
2023/08/16 06:09:57;;;;;;;37.63;23.42;;;19.90;99.90;;;;;;5092561;28;20038;-67
2023/08/16 06:12:23;;;;;;;38.33;22.63;;;20.00;99.90;;;;;;5091194;28;20536;-67
2023/08/16 06:14:49;;;;;;;36.70;23.75;;;20.10;99.90;;;;;;5091616;28;20030;-67
2023/08/16 06:17:15;;;;;;;47.33;25.70;;;20.20;99.90;;;;;;5091293;28;20055;-68
2023/08/16 06:19:41;;;;;;;42.95;25.60;;;20.30;99.90;;;;;;5091944;28;20028;-68
2023/08/16 06:22:08;;;;;;;40.67;23.75;;;20.30;99.90;;;;;;5091111;28;20035;-68
2023/08/16 06:24:36;;;;;;;42.28;24.52;;;20.50;99.90;;;;;;5091188;28;20085;-68
2023/08/16 06:27:03;;;;;;;45.47;26.05;;;20.50;99.90;;;;;;5090096;28;20092;-68
2023/08/16 06:29:29;;;;;;;47.75;25.52;;;20.60;99.90;;;;;;5092010;28;20041;-68
2023/08/16 06:31:55;;;;;;;56.15;30.02;;;20.70;99.90;;;;;;5091002;28;20096;-68
2023/08/16 06:34:21;;;;;;;49.10;28.83;;;20.70;99.90;;;;;;5089855;28;20039;-68
2023/08/16 06:36:48;;;;;;;57.83;27.73;;;20.70;99.90;;;;;;5088589;28;20473;-68
2023/08/16 06:39:17;;;;;;;47.95;25.83;;;20.70;99.90;;;;;;5090120;28;20028;-68
2023/08/16 06:41:43;;;;;;;46.92;24.80;;;20.70;99.90;;;;;;5088207;28;20039;-68
2023/08/16 06:44:09;;;;;;;38.90;26.10;;;20.80;99.90;;;;;;5087975;28;20035;-69
2023/08/16 06:46:35;;;;;;;47.13;27.25;;;20.90;99.90;;;;;;5089119;28;20035;-68
2023/08/16 06:49:01;;;;;;;45.72;28.80;;;20.80;99.90;;;;;;5088339;28;20464;-68
2023/08/16 06:51:27;;;;;;;41.38;29.20;;;20.80;99.90;;;;;;5078334;28;20035;-68
2023/08/16 06:53:53;;;;;;;54.08;28.33;;;20.70;99.90;;;;;;5068568;28;20528;-68
2023/08/16 06:56:19;;;;;;;48.22;30.10;;;20.70;99.90;;;;;;5068497;28;20557;-68
2023/08/16 06:58:45;;;;;;;54.60;31.95;;;20.70;99.90;;;;;;5069234;28;20050;-68
2023/08/16 07:01:11;;;;;;;59.40;32.67;;;20.70;99.90;;;;;;5069760;28;20097;-68
2023/08/16 07:03:37;;;;;;;63.13;32.25;;;20.70;99.90;;;;;;5067889;28;20956;-68
2023/08/16 07:06:04;;;;;;;61.03;35.60;;;20.60;99.90;;;;;;5069540;28;20115;-68
2023/08/16 07:08:30;;;;;;;59.67;34.20;;;20.70;99.90;;;;;;5068838;28;20489;-68
2023/08/16 07:10:56;;;;;;;59.97;36.35;;;20.70;99.90;;;;;;5067532;28;20031;-68
2023/08/16 07:13:22;;;;;;;97.57;61.10;;;20.80;99.90;;;;;;5068691;28;20020;-68
2023/08/16 07:15:48;;;;;;;104.53;78.85;;;20.80;99.90;;;;;;5065803;28;20032;-66
2023/08/16 07:18:14;;;;;;;71.32;40.95;;;20.70;99.90;;;;;;5075443;28;20392;-66
2023/08/16 07:20:39;;;;;;;88.35;40.30;;;20.70;99.90;;;;;;5069881;27;20027;-66
2023/08/16 07:23:06;;;;;;;60.38;35.70;;;20.60;99.90;;;;;;5080017;28;20040;-66
2023/08/16 07:25:35;;;;;;;58.08;32.55;;;20.70;99.90;;;;;;5087894;28;20118;-66
2023/08/16 07:28:00;;;;;;;62.95;33.58;;;20.60;99.90;;;;;;5088849;28;20041;-66
2023/08/16 07:30:44;;;;;;;66.10;33.97;;;20.60;99.90;;;;;;5087911;28;20031;-66
2023/08/16 07:33:10;;;;;;;66.43;33.05;;;20.60;99.90;;;;;;5087397;28;20031;-66
2023/08/16 07:35:36;;;;;;;59.65;33.47;;;20.50;99.90;;;;;;5087735;28;20677;-66
2023/08/16 07:38:03;;;;;;;73.40;34.38;;;20.50;99.90;;;;;;5088881;28;20023;-66
2023/08/16 07:40:29;;;;;;;73.47;37.30;;;20.40;99.90;;;;;;5088949;28;20036;-66
2023/08/16 07:42:55;;;;;;;69.82;37.72;;;20.50;99.90;;;;;;5089243;28;20042;-65
2023/08/16 07:45:21;;;;;;;81.93;44.13;;;20.60;99.90;;;;;;5088313;28;20112;-65
2023/08/16 07:47:47;;;;;;;75.82;38.92;;;20.50;99.90;;;;;;5087341;28;20329;-66
2023/08/16 07:50:13;;;;;;;72.20;43.85;;;20.60;99.90;;;;;;5086713;27;20027;-65
2023/08/16 07:52:39;;;;;;;82.45;47.10;;;20.60;99.90;;;;;;5087756;28;20142;-65
2023/08/16 07:55:05;;;;;;;80.50;42.10;;;20.70;99.90;;;;;;5089494;28;20030;-65
2023/08/16 07:57:31;;;;;;;89.82;53.70;;;20.90;99.90;;;;;;5089581;28;20038;-66
2023/08/16 07:59:57;;;;;;;112.80;61.75;;;21.10;99.90;;;;;;5089121;28;20051;-66
2023/08/16 08:02:23;;;;;;;111.45;65.00;;;21.30;99.90;;;;;;5089381;28;20036;-66
2023/08/16 08:04:49;;;;;;;113.38;52.90;;;21.40;99.90;;;;;;5088894;28;20037;-66
2023/08/16 08:07:15;;;;;;;108.45;50.00;;;21.60;99.90;;;;;;5089044;28;20023;-66
2023/08/16 08:09:41;;;;;;;110.38;53.03;;;21.70;99.90;;;;;;5088934;28;20377;-66
2023/08/16 08:12:07;;;;;;;102.53;51.33;;;21.90;99.90;;;;;;5091232;28;20031;-66
2023/08/16 08:14:33;;;;;;;104.55;48.63;;;22.10;99.90;;;;;;5094096;28;20027;-66
2023/08/16 08:16:59;;;;;;;94.78;46.78;;;21.90;99.90;;;;;;5093666;28;20031;-66
2023/08/16 08:19:25;;;;;;;83.28;47.72;;;22.00;99.90;;;;;;5093893;28;20032;-66
2023/08/16 08:21:51;;;;;;;81.30;46.00;;;22.20;99.90;;;;;;5093783;28;20028;-66
2023/08/16 08:24:17;;;;;;;93.85;47.15;;;22.30;99.90;;;;;;5093822;28;20542;-66
2023/08/16 08:26:43;;;;;;;82.47;44.78;;;22.60;99.90;;;;;;5071227;27;20028;-66
2023/08/16 08:29:09;;;;;;;81.28;42.90;;;22.80;99.90;;;;;;5068482;28;20085;-66
2023/08/16 08:31:35;;;;;;;68.03;39.65;;;23.00;99.90;;;;;;5069450;28;20039;-66
2023/08/16 08:34:00;;;;;;;69.13;37.80;;;23.20;99.90;;;;;;5067850;28;20202;-66
2023/08/16 08:36:27;;;;;;;72.68;37.45;;;23.10;99.90;;;;;;5069881;28;20400;-66
2023/08/16 08:38:53;;;;;;;75.57;39.38;;;23.30;99.90;;;;;;5070834;28;20027;-66
2023/08/16 08:41:23;;;;;;;68.45;38.72;;;23.50;99.90;;;;;;5088254;28;20424;-66
2023/08/16 08:43:50;;;;;;;67.00;38.40;;;23.70;99.90;;;;;;5088749;28;20028;-66
2023/08/16 08:46:17;;;;;;;68.28;36.97;;;23.70;99.90;;;;;;5087851;28;20061;-67
2023/08/16 08:48:44;;;;;;;53.20;33.75;;;23.80;99.90;;;;;;5087049;28;20035;-67
2023/08/16 08:51:10;;;;;;;61.58;33.88;;;23.80;99.90;;;;;;5088291;28;20033;-67
2023/08/16 08:53:36;;;;;;;51.05;30.08;;;23.90;99.90;;;;;;5086814;28;20031;-67
2023/08/16 08:56:10;;;;;;;43.65;29.60;;;23.90;99.90;;;;;;5087811;28;20030;-67
2023/08/16 08:58:40;;;;;;;50.40;32.28;;;23.80;99.90;;;;;;5088451;28;20453;-67
2023/08/16 09:01:08;;;;;;;59.90;31.27;;;23.70;99.90;;;;;;5088002;28;20052;-67
2023/08/16 09:03:35;;;;;;;53.92;30.23;;;23.80;99.90;;;;;;5087770;28;20036;-67
2023/08/16 09:06:03;;;;;;;50.47;30.92;;;23.80;99.90;;;;;;5088221;28;20106;-67
2023/08/16 09:08:30;;;;;;;55.63;30.38;;;23.70;99.90;;;;;;5088480;28;20134;-67
2023/08/16 09:10:59;;;;;;;51.58;29.83;;;23.70;99.90;;;;;;5087679;28;20464;-67
2023/08/16 09:13:26;;;;;;;48.17;27.65;;;23.80;99.90;;;;;;5088234;28;20393;-67
2023/08/16 09:15:51;;;;;;;48.38;27.65;;;24.00;99.90;;;;;;5087619;28;20027;-67
2023/08/16 09:18:19;;;;;;;63.83;32.13;;;24.10;99.90;;;;;;5087811;28;20043;-67
2023/08/16 09:20:45;;;;;;;49.42;31.73;;;24.00;99.90;;;;;;5088060;28;20463;-67
2023/08/16 09:23:15;;;;;;;55.30;31.80;;;24.20;99.90;;;;;;5087848;28;20135;-67
2023/08/16 09:25:41;;;;;;;52.38;32.70;;;24.40;99.10;;;;;;5087448;28;20024;-67
2023/08/16 09:28:30;;;;;;;46.97;29.95;;;24.50;98.50;;;;;;5087723;28;20481;-67
2023/08/16 09:30:56;;;;;;;47.75;28.35;;;24.70;98.90;;;;;;5087573;28;20035;-67
2023/08/16 09:33:24;;;;;;;50.20;29.63;;;25.30;99.20;;;;;;5088015;28;20028;-67
2023/08/16 09:35:51;;;;;;;48.67;27.73;;;25.90;98.00;;;;;;5087913;28;20135;-67
2023/08/16 09:38:21;;;;;;;45.53;27.15;;;26.60;97.40;;;;;;5087693;28;20085;-67
2023/08/16 09:40:47;;;;;;;39.58;24.40;;;27.30;94.80;;;;;;5090509;28;20552;-67
2023/08/16 09:43:13;;;;;;;38.45;23.55;;;27.80;92.20;;;;;;5092003;28;20220;-68
2023/08/16 09:45:40;;;;;;;41.08;22.48;;;27.90;88.40;;;;;;5090463;28;20389;-67
2023/08/16 09:48:08;;;;;;;30.02;20.40;;;28.00;88.60;;;;;;5091450;28;20582;-67
2023/08/16 09:50:35;;;;;;;30.55;21.73;;;27.60;84.90;;;;;;5091695;28;20480;-68
2023/08/16 09:53:04;;;;;;;26.63;20.08;;;27.70;86.30;;;;;;5091933;28;20047;-67
2023/08/16 09:55:32;;;;;;;35.40;20.42;;;28.70;88.20;;;;;;5089842;28;20365;-67
2023/08/16 09:57:59;;;;;;;29.42;18.75;;;29.00;76.20;;;;;;5091810;28;20102;-67
2023/08/16 10:00:27;;;;;;;27.90;21.15;;;28.80;77.30;;;;;;5092269;28;20039;-67
2023/08/16 10:02:54;;;;;;;35.28;22.27;;;27.40;77.10;;;;;;5096399;28;20051;-66
2023/08/16 10:05:21;;;;;;;33.63;22.13;;;28.00;78.60;;;;;;5096224;28;20047;-67
2023/08/16 10:07:48;;;;;;;32.92;22.27;;;28.40;76.50;;;;;;5096304;28;20027;-67
2023/08/16 10:10:15;;;;;;;30.05;20.30;;;28.60;74.70;;;;;;5091450;28;20034;-66
2023/08/16 10:12:42;;;;;;;33.15;21.60;;;28.40;74.10;;;;;;5091214;28;20028;-67
2023/08/16 10:15:09;;;;;;;28.27;21.65;;;28.20;75.40;;;;;;5091320;28;20085;-67
2023/08/16 10:17:39;;;;;;;32.05;21.00;;;28.20;74.80;;;;;;5091236;28;20024;-67
2023/08/16 10:20:17;;;;;;;25.55;19.88;;;28.20;76.90;;;;;;5091295;28;20054;-67
2023/08/16 10:22:45;;;;;;;26.80;20.08;;;28.40;75.10;;;;;;5092384;28;20503;-67
2023/08/16 10:25:23;;;;;;;29.58;18.73;;;28.70;73.90;;;;;;5091332;28;20070;-67
2023/08/16 10:27:50;;;;;;;24.48;18.40;;;28.70;73.00;;;;;;5091057;28;20471;-67
2023/08/16 10:30:23;;;;;;;23.70;18.80;;;29.20;73.30;;;;;;5091013;28;20055;-68
2023/08/16 10:32:57;;;;;;;26.65;18.88;;;29.80;70.40;;;;;;5090980;28;20039;-68
2023/08/16 10:35:24;;;;;;;24.23;17.67;;;29.90;69.00;;;;;;5089289;28;20027;-68
2023/08/16 10:37:53;;;;;;;28.20;19.23;;;29.70;67.70;;;;;;5091044;28;20461;-69
2023/08/16 10:40:22;;;;;;;27.03;19.97;;;29.60;69.00;;;;;;5091037;28;20069;-68
2023/08/16 10:42:53;;;;;;;28.02;20.02;;;30.00;66.30;;;;;;5091832;28;20268;-68
2023/08/16 10:45:29;;;;;;;28.55;19.65;;;29.80;66.80;;;;;;5095225;28;20070;-68
2023/08/16 10:47:55;;;;;;;29.05;20.60;;;29.30;66.00;;;;;;5095841;28;20036;-68
2023/08/16 10:50:37;;;;;;;28.15;20.60;;;29.30;65.90;;;;;;5092386;28;20035;-68
2023/08/16 10:53:05;;;;;;;28.50;21.77;;;29.00;66.20;;;;;;5090286;28;20036;-68
2023/08/16 10:55:31;;;;;;;36.75;22.10;;;28.80;67.90;;;;;;5090589;28;20026;-68
2023/08/16 10:57:57;;;;;;;33.15;23.10;;;29.00;68.00;;;;;;5090544;28;20023;-68
2023/08/16 11:00:36;;;;;;;28.70;20.83;;;28.90;66.20;;;;;;5090415;28;20135;-68
2023/08/16 11:03:04;;;;;;;28.25;20.70;;;29.30;65.00;;;;;;5089429;28;20084;-68
2023/08/16 11:05:31;;;;;;;27.67;20.60;;;29.20;63.90;;;;;;5090337;28;20112;-68
2023/08/16 11:08:02;;;;;;;26.80;20.30;;;28.70;65.10;;;;;;5090265;28;20464;-68
2023/08/16 11:10:35;;;;;;;28.80;20.63;;;28.90;65.20;;;;;;5090121;28;20039;-68
2023/08/16 11:13:11;;;;;;;32.88;22.48;;;29.30;66.30;;;;;;5093429;28;20051;-68
2023/08/16 11:15:38;;;;;;;49.35;25.70;;;29.40;66.80;;;;;;5094720;28;20048;-68
2023/08/16 11:18:05;;;;;;;30.90;21.15;;;29.30;64.90;;;;;;5094350;28;20047;-69
2023/08/16 11:20:31;;;;;;;29.58;20.88;;;29.60;66.30;;;;;;5089383;28;20035;-69
2023/08/16 11:23:00;;;;;;;29.92;21.17;;;30.10;63.40;;;;;;5089776;28;20032;-69
2023/08/16 11:25:33;;;;;;;25.08;20.77;;;30.50;62.00;;;;;;5089223;28;20103;-69
2023/08/16 11:28:01;;;;;;;28.27;21.77;;;30.60;61.00;;;;;;5089546;28;20496;-69
2023/08/16 11:30:27;;;;;;;28.60;21.58;;;30.70;58.90;;;;;;5087554;28;20486;-69
2023/08/16 11:32:53;;;;;;;32.40;22.42;;;30.30;61.00;;;;;;5088837;28;20031;-69
2023/08/16 11:35:19;;;;;;;28.55;22.77;;;30.30;59.90;;;;;;5088674;28;20477;-69
2023/08/16 11:37:46;;;;;;;28.60;23.70;;;30.20;60.30;;;;;;5090335;28;20024;-69
2023/08/16 11:40:12;;;;;;;32.38;23.40;;;29.80;61.70;;;;;;5093771;28;20810;-69
2023/08/16 11:42:38;;;;;;;40.67;25.67;;;29.80;64.00;;;;;;5093932;28;20425;-69
2023/08/16 11:45:22;;;;;;;31.25;25.52;;;30.00;63.60;;;;;;5094275;28;20042;-69
2023/08/16 11:47:54;;;;;;;35.42;27.77;;;29.60;64.90;;;;;;5093758;28;20066;-68
2023/08/16 11:50:22;;;;;;;35.78;27.40;;;29.90;66.50;;;;;;5088950;28;20081;-69
2023/08/16 11:52:59;;;;;;;41.33;27.70;;;29.70;61.70;;;;;;5088222;28;20027;-66
2023/08/16 11:55:31;;;;;;;41.60;30.52;;;28.80;63.80;;;;;;5088554;28;20035;-66
2023/08/16 11:58:10;;;;;;;39.53;32.42;;;28.40;68.00;;;;;;5089117;28;20523;-68
2023/08/16 12:00:40;;;;;;;41.93;33.43;;;28.40;69.90;;;;;;5086476;28;20105;-68
2023/08/16 12:03:09;;;;;;;39.38;33.17;;;28.70;69.80;;;;;;5087624;28;20028;-68
2023/08/16 12:05:36;;;;;;;50.20;39.17;;;29.20;68.00;;;;;;5087235;28;20030;-68
2023/08/16 12:08:07;;;;;;;54.97;36.90;;;29.70;65.50;;;;;;5089004;28;20027;-67
2023/08/16 12:10:33;;;;;;;52.25;39.90;;;30.10;64.10;;;;;;5087605;28;20031;-69
2023/08/16 12:13:10;;;;;;;53.95;41.63;;;30.40;61.60;;;;;;5087503;28;20493;-68
2023/08/16 12:15:36;;;;;;;46.63;37.78;;;30.60;59.40;;;;;;5086147;27;20070;-68
2023/08/16 12:18:05;;;;;;;53.88;39.50;;;30.80;57.50;;;;;;5086090;28;20485;-67
2023/08/16 12:20:35;;;;;;;54.75;41.92;;;31.20;58.00;;;;;;5082958;28;20077;-68
2023/08/16 12:23:02;;;;;;;68.53;50.20;;;31.60;57.10;;;;;;5086644;28;20062;-68
2023/08/16 12:25:28;;;;;;;86.10;55.20;;;31.50;56.70;;;;;;5089527;28;20035;-68